PWSweather.com
Personal Weather Stations
Station Observations
WIKENOS15
47th Ave & 30th St, Kenosha, WI 53144

47th Ave & 30th StKenosha, WI 53144

Lat: 42.612, Lon: -87.866

Elevation: 697

Station Type: Oregon Scientific 100N

High Low Average
Temperature 42.1°F5.6°C 19.6°F-6.9°C 29.6°F-1.3°C
Dew Point 23.8°F-4.6°C 14.1°F-9.9°C 18.4°F-7.6°C
Winds 9.8 mph 15.8 kmh Calm Calm 5.0 mph SW8.0 kmh SW
Wind Gusts 12.0 mph19.3 kmh -- 6.0 mph9.7 kmh
Humidity 87% 42% 65%
Pressure 30.15 in1021.0 mb 30.09 in1019.0 mb -
Precipitation 0.00 in0.0 mm - -
Hour Temp Dew Point Humidity Winds Wind Gusts Pressure Precip Precip Rate Daily Precip Total
12:00 AM 25.0°F-3.9°C 16.2°F-8.8°C 69% 1.8 mph WSW2.9 kmh WSW 2.8 mph4.5 kmh 30.12 in1020.0 mb 0.00 in0.0 mm 0.00 in/hr0.0 mm/hr 0.00 in0.0 mm
01:00 AM 23.2°F-4.9°C 15.8°F-9.0°C 73% 2.9 mph WSW4.7 kmh WSW 4.4 mph7.1 kmh 30.12 in1020.0 mb 0.00 in0.0 mm 0.00 in/hr0.0 mm/hr 0.00 in0.0 mm
02:00 AM 22.5°F-5.3°C 16.0°F-8.9°C 76% 2.8 mph W4.5 kmh W 3.2 mph5.1 kmh 30.15 in1021.0 mb 0.00 in0.0 mm 0.00 in/hr0.0 mm/hr 0.00 in0.0 mm
03:00 AM 22.1°F-5.5°C 16.3°F-8.7°C 78% 2.9 mph NW4.7 kmh NW 4.8 mph7.7 kmh 30.15 in1021.0 mb 0.00 in0.0 mm 0.00 in/hr0.0 mm/hr 0.00 in0.0 mm
04:00 AM 23.9°F-4.5°C 19.2°F-7.1°C 82% 3.9 mph NW6.3 kmh NW 4.8 mph7.7 kmh 30.12 in1020.0 mb 0.00 in0.0 mm 0.00 in/hr0.0 mm/hr 0.00 in0.0 mm
05:00 AM 24.6°F-4.1°C 19.3°F-7.1°C 80% Calm Calm -- 30.12 in1020.0 mb 0.00 in0.0 mm 0.00 in/hr0.0 mm/hr 0.00 in0.0 mm
06:00 AM 21.4°F-5.9°C 15.3°F-9.3°C 77% 3.9 mph WSW6.3 kmh WSW 4.4 mph7.1 kmh 30.12 in1020.0 mb 0.00 in0.0 mm 0.00 in/hr0.0 mm/hr 0.00 in0.0 mm
07:00 AM 19.6°F-6.9°C 14.1°F-9.9°C 79% 2.8 mph WSW4.5 kmh WSW 3.2 mph5.1 kmh 30.12 in1020.0 mb 0.00 in0.0 mm 0.00 in/hr0.0 mm/hr 0.00 in0.0 mm
08:00 AM 19.8°F-6.8°C 14.9°F-9.5°C 81% 3.5 mph NW5.6 kmh NW 4.8 mph7.7 kmh 30.12 in1020.0 mb 0.00 in0.0 mm 0.00 in/hr0.0 mm/hr 0.00 in0.0 mm
09:00 AM 25.0°F-3.9°C 21.7°F-5.7°C 87% 4.5 mph NW7.2 kmh NW 6.2 mph10.0 kmh 30.12 in1020.0 mb 0.00 in0.0 mm 0.00 in/hr0.0 mm/hr 0.00 in0.0 mm
10:00 AM 29.5°F-1.4°C 23.2°F-4.9°C 77% 5.8 mph NW9.3 kmh NW 6.7 mph10.8 kmh 30.15 in1021.0 mb 0.00 in0.0 mm 0.00 in/hr0.0 mm/hr 0.00 in0.0 mm
11:00 AM 34.0°F1.1°C 23.8°F-4.6°C 66% 6.4 mph SE10.3 kmh SE 7.1 mph11.4 kmh 30.15 in1021.0 mb 0.00 in0.0 mm 0.00 in/hr0.0 mm/hr 0.00 in0.0 mm
12:00 PM 37.1°F2.8°C 19.2°F-7.1°C 48% 3.5 mph N5.6 kmh N 3.9 mph6.3 kmh 30.15 in1021.0 mb 0.00 in0.0 mm 0.00 in/hr0.0 mm/hr 0.00 in0.0 mm
01:00 PM 38.8°F3.8°C 19.8°F-6.8°C 46% 5.7 mph SE9.2 kmh SE 6.7 mph10.8 kmh 30.15 in1021.0 mb 0.00 in0.0 mm 0.00 in/hr0.0 mm/hr 0.00 in0.0 mm
02:00 PM 42.1°F5.6°C 20.6°F-6.3°C 42% 8.7 mph SSE14.0 kmh SSE 7.6 mph12.2 kmh 30.12 in1020.0 mb 0.00 in0.0 mm 0.00 in/hr0.0 mm/hr 0.00 in0.0 mm
03:00 PM 38.7°F3.7°C 17.5°F-8.1°C 42% 9.8 mph SE15.8 kmh SE 11.7 mph18.8 kmh 30.09 in1019.0 mb 0.00 in0.0 mm 0.00 in/hr0.0 mm/hr 0.00 in0.0 mm
04:00 PM 39.7°F4.3°C 19.5°F-6.9°C 44% 5.5 mph SE8.9 kmh SE 12.0 mph19.3 kmh 30.09 in1019.0 mb 0.00 in0.0 mm 0.00 in/hr0.0 mm/hr 0.00 in0.0 mm
05:00 PM 37.5°F3.1°C 18.5°F-7.5°C 46% 6.7 mph ESE10.8 kmh ESE 9.9 mph15.9 kmh 30.09 in1019.0 mb 0.00 in0.0 mm 0.00 in/hr0.0 mm/hr 0.00 in0.0 mm
06:00 PM 32.8°F0.4°C 16.7°F-8.5°C 51% 5.9 mph S9.5 kmh S 6.7 mph10.8 kmh 30.09 in1019.0 mb 0.00 in0.0 mm 0.00 in/hr0.0 mm/hr 0.00 in0.0 mm
07:00 PM 29.5°F-1.4°C 16.5°F-8.6°C 58% 3.2 mph SE5.1 kmh SE 4.4 mph7.1 kmh 30.12 in1020.0 mb 0.00 in0.0 mm 0.00 in/hr0.0 mm/hr 0.00 in0.0 mm
08:00 PM 28.2°F-2.1°C 16.9°F-8.4°C 62% 3.5 mph SSE5.6 kmh SSE 4.8 mph7.7 kmh 30.12 in1020.0 mb 0.00 in0.0 mm 0.00 in/hr0.0 mm/hr 0.00 in0.0 mm
09:00 PM 27.3°F-2.6°C 17.1°F-8.3°C 65% 4.1 mph SSE6.6 kmh SSE 5.3 mph8.5 kmh 30.12 in1020.0 mb 0.00 in0.0 mm 0.00 in/hr0.0 mm/hr 0.00 in0.0 mm
11:00 PM 25.5°F-3.6°C 16.1°F-8.8°C 67% Calm Calm -- 30.15 in1021.0 mb 0.00 in0.0 mm 0.00 in/hr0.0 mm/hr 0.00 in0.0 mm